TAF LDZA 282325Z 2900/3000 VRB02KT 0200 FG VV001
                 TX14/2914Z TN05/2903Z
           BECMG 2909/2911 3000 BR OVC003
           BECMG 2913/2915 6000 NSW SCT010
           BECMG 2920/2922 2000 BR=
TAF LDZA 281725Z 2818/2918 VRB02KT 9999 FEW020
                 TX15/2914Z TN07/2906Z
           BECMG 2818/2820 3000 MIFG BR BKN005
           BECMG 2820/2822 0200 FG VV001
           BECMG 2909/2911 9999 NSW OVC010
           BECMG 2913/2915 SCT020=
TAF LDZA 281125Z 2812/2912 VRB02KT 9999 OVC008
                 TX15/2814Z TN10/2904Z
           BECMG 2813/2815 SCT010
           BECMG 2817/2819 3000 BR OVC005
           BECMG 2819/2821 0200 FG VV002
           BECMG 2908/2910 9999 NSW OVC005=
TAF AMD LDZA 280913Z 2809/2906 VRB02KT 9999 OVC006
                     TX17/2813Z TN07/2904Z
               BECMG 2811/2813 SCT010
               BECMG 2816/2818 4000 BR BKN008
               BECMG 2819/2821 0200 FG VV001=
TAF LDZA 280525Z 2806/2906 VRB02KT 9999 SCT020
                 TX17/2813Z TN07/2903Z
           TEMPO 2806/2809 4000 BR OVC005
          PROB30 2806/2807 0700 FG VV001
           BECMG 2816/2818 4000 BR BKN008
           BECMG 2819/2821 0200 FG VV001=
TAF LDZA 272325Z 2800/2900 04005KT 6000 BKN015
                 TX17/2813Z TN09/2803Z
           TEMPO 2800/2807 3000 BR OVC004
          PROB30 2802/2807 0700 FG VV001
           BECMG 2810/2812 9999 NSW SCT025
           BECMG 2816/2818 4000 BR BKN008
           BECMG 2819/2821 0300 FG VV001=
TAF LDZA 271725Z 2718/2818 VRB02KT 4000 BR BKN040
                 TX17/2814Z TN09/2803Z
           TEMPO 2718/2801 1000 BCFG BKN008
           BECMG 2723/2801 0200 FG VV001
           BECMG 2807/2809 3000 BR BKN010
           BECMG 2810/2812 9999 NSW SCT025
           BECMG 2816/2818 4000 BR=
TAF AMD LDZA 271659Z 2716/2812 VRB02KT 4000 -RA BR BKN040
                     TX14/2811Z TN08/2803Z
               BECMG 2716/2718 BKN008
              PROB40 2800/2807 0200 FG VV001
               BECMG 2808/2810 9999 NSW SCT025=
TAF AMD LDZA 271257Z 2712/2812 VRB02KT 9999 BKN040
                     TX14/2811Z TN08/2803Z
               TEMPO 2712/2718 RA BKN012
        PROB40 TEMPO 2712/2715 22015KT 4000 SHRA FEW015 SCT030TCU BKN035
               BECMG 2721/2723 3000 BR BKN010
        PROB30 TEMPO 2802/2807 0200 FG VV001
               BECMG 2808/2810 9999 NSW SCT025=
TAF COR LDZA 271203Z 2712/2812 29010KT 9999 BKN040
                     TX14/2811Z TN08/2803Z
               TEMPO 2712/2718 RA BKN012
        PROB40 TEMPO 2712/2715 22015KT 4000 SHRA FEW015 SCT030TCU BKN035
               BECMG 2721/2723 VRB02KT 3000 BR BKN010
        PROB30 TEMPO 2802/2807 0200 FG VV001
               BECMG 2808/2810 9999 NSW SCT025=